createdAt,value
2019-05-11T00:00:02.026Z,3.10
2019-05-11T00:02:34.134Z,2.20
2019-05-11T00:05:04.588Z,2.50
2019-05-11T00:07:35.077Z,2.30
2019-05-11T00:10:05.752Z,2.10
2019-05-11T00:12:36.301Z,2.07
2019-05-11T00:15:07.012Z,2.10
2019-05-11T00:17:37.401Z,2.00
2019-05-11T00:20:08.116Z,2.57
2019-05-11T00:22:38.500Z,2.67
2019-05-11T00:28:11.607Z,2.40
2019-05-11T00:30:43.633Z,2.00
2019-05-11T00:33:33.494Z,2.20
2019-05-11T00:36:03.975Z,2.00
2019-05-11T00:38:34.356Z,2.30
2019-05-11T00:41:05.073Z,2.10
2019-05-11T00:43:35.469Z,2.23
2019-05-11T00:46:25.227Z,2.80
2019-05-11T00:49:15.039Z,2.17
2019-05-11T00:51:45.427Z,1.93
2019-05-11T00:54:35.243Z,2.40
2019-05-11T00:57:25.003Z,2.20
2019-05-11T00:59:55.404Z,2.20
2019-05-11T01:02:25.856Z,2.40
2019-05-11T01:04:56.290Z,2.30
2019-05-11T01:07:26.644Z,2.50
2019-05-11T01:09:56.994Z,1.70
2019-05-11T01:12:27.454Z,2.80
2019-05-11T01:14:57.893Z,2.50
2019-05-11T01:17:29.938Z,2.40
2019-05-11T01:20:01.078Z,3.07
2019-05-11T01:22:31.607Z,2.37
2019-05-11T01:25:01.987Z,2.17
2019-05-11T01:27:32.329Z,2.10
2019-05-11T01:30:22.093Z,2.20
2019-05-11T01:32:52.479Z,2.20
2019-05-11T01:35:22.912Z,2.57
2019-05-11T01:37:53.276Z,2.57
2019-05-11T01:40:23.655Z,2.37
2019-05-11T01:42:53.996Z,2.70
2019-05-11T01:45:24.402Z,2.43
2019-05-11T01:47:54.743Z,2.00
2019-05-11T01:50:25.121Z,1.73
2019-05-11T01:52:55.465Z,2.10
2019-05-11T01:55:25.839Z,2.20
2019-05-11T01:57:56.271Z,2.20
2019-05-11T02:00:26.685Z,2.70
2019-05-11T02:02:57.045Z,2.27
2019-05-11T02:05:46.840Z,2.80
2019-05-11T02:08:17.184Z,2.60
2019-05-11T02:11:15.327Z,2.43
2019-05-11T02:13:58.424Z,2.37
2019-05-11T02:16:28.812Z,2.07
2019-05-11T02:18:59.154Z,2.73
2019-05-11T02:21:29.526Z,2.30
2019-05-11T02:23:59.900Z,2.27
2019-05-11T02:26:49.674Z,2.67
2019-05-11T02:29:20.086Z,2.00
2019-05-11T02:31:50.610Z,2.23
2019-05-11T02:34:21.005Z,2.30
2019-05-11T02:36:51.445Z,2.20
2019-05-11T02:39:21.801Z,2.33
2019-05-11T02:42:11.568Z,2.30
2019-05-11T02:45:01.418Z,2.90
2019-05-11T02:47:31.909Z,2.80
2019-05-11T02:50:21.715Z,2.07
2019-05-11T02:52:52.181Z,2.20
2019-05-11T02:55:22.609Z,2.90
2019-05-11T02:57:52.993Z,2.40
2019-05-11T03:03:25.939Z,2.40
2019-05-11T03:06:15.706Z,2.57
2019-05-11T03:12:09.790Z,2.57
2019-05-11T03:14:59.559Z,2.10
2019-05-11T03:20:28.707Z,3.33
2019-05-11T03:23:00.700Z,2.37
2019-05-11T03:25:31.087Z,2.57
2019-05-11T03:28:01.451Z,2.90
2019-05-11T03:30:31.820Z,2.43
2019-05-11T03:33:02.274Z,2.47
2019-05-11T03:35:52.050Z,3.17
2019-05-11T03:38:41.855Z,2.83
2019-05-11T03:41:31.654Z,2.60
2019-05-11T03:44:02.032Z,2.50
2019-05-11T03:46:51.844Z,2.60
2019-05-11T03:49:22.214Z,2.30
2019-05-11T03:52:12.003Z,2.80
2019-05-11T03:54:42.456Z,2.57
2019-05-11T03:57:12.832Z,2.70
2019-05-11T04:00:02.640Z,2.93
2019-05-11T04:02:32.999Z,2.40
2019-05-11T04:05:05.327Z,2.57
2019-05-11T04:07:35.784Z,2.80
2019-05-11T04:10:06.306Z,2.57
2019-05-11T04:12:36.793Z,2.60
2019-05-11T04:15:07.219Z,2.60
2019-05-11T04:17:37.652Z,2.70
2019-05-11T04:20:07.980Z,2.50
2019-05-11T04:22:57.806Z,2.30
2019-05-11T04:25:28.161Z,2.50
2019-05-11T04:28:17.948Z,2.70
2019-05-11T04:30:48.294Z,2.27
2019-05-11T04:33:18.975Z,2.50
2019-05-11T04:35:49.342Z,2.20
2019-05-11T04:38:19.791Z,2.60
2019-05-11T04:40:50.138Z,2.63
2019-05-11T04:43:22.233Z,2.77
2019-05-11T04:45:52.664Z,2.80
2019-05-11T04:48:23.040Z,2.60
2019-05-11T04:50:53.433Z,2.93
2019-05-11T04:53:23.801Z,2.53
2019-05-11T04:55:55.946Z,2.70
2019-05-11T04:58:26.354Z,2.43
2019-05-11T05:00:56.709Z,2.50
2019-05-11T05:03:47.508Z,3.13
2019-05-11T05:06:38.986Z,2.97
2019-05-11T05:09:21.001Z,3.47
2019-05-11T05:11:51.353Z,3.40
2019-05-11T05:14:21.741Z,2.73
2019-05-11T05:17:12.668Z,3.00
2019-05-11T05:19:43.036Z,2.87
2019-05-11T05:22:13.445Z,2.60
2019-05-11T05:24:43.900Z,3.00
2019-05-11T05:27:33.640Z,2.70
2019-05-11T05:30:04.149Z,3.40
2019-05-11T05:32:34.546Z,2.80
2019-05-11T05:38:07.101Z,2.97
2019-05-11T05:40:37.579Z,2.93
2019-05-11T05:43:08.057Z,2.70
2019-05-11T05:45:38.564Z,3.07
2019-05-11T05:48:09.032Z,3.20
2019-05-11T05:50:39.482Z,2.77
2019-05-11T05:53:09.950Z,3.30
2019-05-11T05:55:40.344Z,2.63
2019-05-11T05:58:12.415Z,3.13
2019-05-11T06:01:02.187Z,2.67
2019-05-11T06:03:52.000Z,3.20
2019-05-11T06:06:41.786Z,3.00
2019-05-11T06:09:12.162Z,3.00
2019-05-11T06:12:01.921Z,3.90
2019-05-11T06:14:32.327Z,3.40
2019-05-11T06:17:22.090Z,3.20
2019-05-11T06:23:14.493Z,3.20
2019-05-11T06:25:44.873Z,3.30
2019-05-11T06:28:15.364Z,3.20
2019-05-11T06:30:45.777Z,2.80
2019-05-11T06:33:17.818Z,2.63
2019-05-11T06:35:48.294Z,2.83
2019-05-11T06:38:30.552Z,3.20
2019-05-11T06:44:03.050Z,2.80
2019-05-11T06:46:35.085Z,2.60
2019-05-11T06:49:16.601Z,2.33
2019-05-11T06:51:47.024Z,2.80
2019-05-11T06:54:17.484Z,2.43
2019-05-11T06:56:47.843Z,2.20
2019-05-11T06:59:18.405Z,2.60
2019-05-11T07:01:48.753Z,2.47
2019-05-11T07:04:19.136Z,2.20
2019-05-11T07:07:08.904Z,2.97
2019-05-11T07:09:58.685Z,2.97
2019-05-11T07:12:48.458Z,3.57
2019-05-11T07:15:38.233Z,2.50
2019-05-11T07:18:08.606Z,2.90
2019-05-11T07:20:49.920Z,2.60
2019-05-11T07:23:22.540Z,2.40
2019-05-11T07:25:52.937Z,2.07
2019-05-11T07:28:23.293Z,1.60
2019-05-11T07:30:53.779Z,1.90
2019-05-11T07:33:43.527Z,1.70
2019-05-11T07:36:33.313Z,2.40
2019-05-11T07:42:02.000Z,1.70
2019-05-11T07:44:38.546Z,1.67
2019-05-11T07:47:18.647Z,2.00
2019-05-11T07:50:00.505Z,1.60
2019-05-11T07:52:30.875Z,2.20
2019-05-11T07:55:01.227Z,1.80
2019-05-11T07:57:51.008Z,1.70
2019-05-11T08:03:23.949Z,2.30
2019-05-11T08:05:54.316Z,3.07
2019-05-11T08:08:44.120Z,2.80
2019-05-11T08:11:14.465Z,2.40
2019-05-11T08:13:44.874Z,2.97
2019-05-11T08:16:15.281Z,2.40
2019-05-11T08:18:48.041Z,1.67
2019-05-11T08:21:38.812Z,2.00
2019-05-11T08:24:22.532Z,2.03
2019-05-11T08:26:52.897Z,1.90
2019-05-11T08:29:23.404Z,2.23
2019-05-11T08:31:54.648Z,2.03
2019-05-11T08:34:44.535Z,2.47
2019-05-11T08:37:34.306Z,2.20
2019-05-11T08:43:20.459Z,2.27
2019-05-11T08:46:10.281Z,1.77
2019-05-11T08:48:40.732Z,1.93
2019-05-11T08:51:11.141Z,1.83
2019-05-11T08:53:41.585Z,1.87
2019-05-11T08:56:13.320Z,2.03
2019-05-11T08:58:58.581Z,2.00
2019-05-11T09:01:33.527Z,2.50
2019-05-11T09:04:03.969Z,2.80
2019-05-11T09:06:53.761Z,5.17
2019-05-11T09:09:24.462Z,3.53
2019-05-11T09:11:54.898Z,2.70
2019-05-11T09:14:44.701Z,2.07
2019-05-11T09:17:15.102Z,1.90
2019-05-11T09:19:47.925Z,1.90
2019-05-11T09:22:38.156Z,1.80
2019-05-11T09:25:20.224Z,2.30
2019-05-11T09:27:50.683Z,1.80
2019-05-11T09:30:40.463Z,1.87
2019-05-11T09:33:12.636Z,2.50
2019-05-11T09:35:50.104Z,2.23
2019-05-11T09:38:20.562Z,3.80
2019-05-11T09:40:51.042Z,2.23
2019-05-11T09:43:21.494Z,1.63
2019-05-11T09:45:52.227Z,1.80
2019-05-11T09:48:34.814Z,1.20
2019-05-11T09:51:07.664Z,1.47
2019-05-11T09:53:58.754Z,1.30
2019-05-11T09:56:34.549Z,2.33
2019-05-11T09:59:24.344Z,1.63
2019-05-11T10:01:54.833Z,2.77
2019-05-11T10:04:25.381Z,3.67
2019-05-11T10:06:55.825Z,4.70
2019-05-11T10:09:28.061Z,3.40
2019-05-11T10:12:09.292Z,7.53
2019-05-11T10:14:39.694Z,3.20
2019-05-11T10:17:10.128Z,1.73
2019-05-11T10:19:42.209Z,0.90
2019-05-11T10:22:13.044Z,1.27
2019-05-11T10:24:47.582Z,1.20
2019-05-11T10:27:38.362Z,1.60
2019-05-11T10:30:20.084Z,2.00
2019-05-11T10:33:09.946Z,2.50
2019-05-11T10:35:40.384Z,1.60
2019-05-11T10:38:10.814Z,1.70
2019-05-11T10:40:41.649Z,1.57
2019-05-11T10:43:13.668Z,2.73
2019-05-11T10:45:44.100Z,3.40
2019-05-11T10:48:14.591Z,7.27
2019-05-11T10:50:45.107Z,9.10
2019-05-11T10:53:15.501Z,16.53
2019-05-11T10:55:47.941Z,10.80
2019-05-11T10:58:38.009Z,5.60
2019-05-11T11:01:20.415Z,4.23
2019-05-11T11:03:50.880Z,2.70
2019-05-11T11:06:21.292Z,8.50
2019-05-11T11:08:51.673Z,29.60
2019-05-11T11:11:41.467Z,32.00
2019-05-11T11:14:31.249Z,26.43
2019-05-11T11:17:01.660Z,38.03
2019-05-11T11:19:51.457Z,37.13
2019-05-11T11:22:36.203Z,18.57
2019-05-11T11:25:13.557Z,14.03
2019-05-11T11:27:44.044Z,9.50
2019-05-11T11:30:14.482Z,9.77
2019-05-11T11:32:45.034Z,7.80
2019-05-11T11:35:15.398Z,6.00
2019-05-11T11:37:47.724Z,3.20
2019-05-11T11:40:38.692Z,2.00
2019-05-11T11:43:20.046Z,1.90
2019-05-11T11:45:50.447Z,2.20
2019-05-11T11:48:40.249Z,2.27
2019-05-11T11:51:30.109Z,2.27
2019-05-11T11:54:19.865Z,1.20
2019-05-11T11:56:50.307Z,2.00
2019-05-11T11:59:40.060Z,1.60
2019-05-11T12:02:10.465Z,1.30
2019-05-11T12:05:00.191Z,1.27
2019-05-11T12:07:30.571Z,1.00
2019-05-11T12:13:22.751Z,0.90
2019-05-11T12:16:12.513Z,1.80
2019-05-11T12:18:42.980Z,1.20
2019-05-11T12:21:13.363Z,1.40
2019-05-11T12:23:43.750Z,1.20
2019-05-11T12:26:14.135Z,1.00
2019-05-11T12:29:03.901Z,1.20
2019-05-11T12:31:34.246Z,1.03
2019-05-11T12:34:04.651Z,1.20
2019-05-11T12:36:35.108Z,1.67
2019-05-11T12:39:08.452Z,1.10
2019-05-11T12:41:39.030Z,1.00
2019-05-11T12:44:28.855Z,1.17
2019-05-11T12:46:59.273Z,1.10
2019-05-11T12:49:29.656Z,1.23
2019-05-11T12:52:00.111Z,1.30
2019-05-11T12:54:33.535Z,1.30
2019-05-11T12:57:13.477Z,1.40
2019-05-11T12:59:43.894Z,1.43
2019-05-11T13:02:14.275Z,1.20
2019-05-11T13:04:47.720Z,1.33
2019-05-11T13:07:39.213Z,1.20
2019-05-11T13:10:21.450Z,1.70
2019-05-11T13:12:51.820Z,2.27
2019-05-11T13:15:22.241Z,1.67
2019-05-11T13:17:52.633Z,2.30
2019-05-11T13:20:23.057Z,2.20
2019-05-11T13:22:53.419Z,1.57
2019-05-11T13:25:23.805Z,1.63
2019-05-11T13:28:14.459Z,1.50
2019-05-11T13:30:44.939Z,1.43
2019-05-11T13:33:19.047Z,1.67
2019-05-11T13:35:59.911Z,1.53
2019-05-11T13:38:49.670Z,1.33
2019-05-11T13:41:21.838Z,1.20
2019-05-11T13:43:52.245Z,1.50
2019-05-11T13:46:22.637Z,1.13
2019-05-11T13:49:12.404Z,1.10
2019-05-11T13:51:42.797Z,1.10
2019-05-11T13:54:32.593Z,1.30
2019-05-11T13:57:02.983Z,1.00
2019-05-11T13:59:52.758Z,1.53
2019-05-11T14:02:23.163Z,1.17
2019-05-11T14:04:53.564Z,1.40
2019-05-11T14:07:23.938Z,1.70
2019-05-11T14:09:54.462Z,1.03
2019-05-11T14:12:43.926Z,1.03
2019-05-11T14:15:14.376Z,1.10
2019-05-11T14:17:44.733Z,1.07
2019-05-11T14:20:34.538Z,0.97
2019-05-11T14:23:04.886Z,1.10
2019-05-11T14:25:54.724Z,0.90
2019-05-11T14:28:25.271Z,0.80
2019-05-11T14:30:57.738Z,1.00
2019-05-11T14:33:38.690Z,1.00
2019-05-11T14:36:09.347Z,1.20
2019-05-11T14:38:39.780Z,1.10
2019-05-11T14:41:29.583Z,0.73
2019-05-11T14:43:59.955Z,1.00
2019-05-11T14:46:30.433Z,1.87
2019-05-11T14:49:00.830Z,1.07
2019-05-11T14:51:32.925Z,1.00
2019-05-11T14:54:03.328Z,0.93
2019-05-11T14:56:53.112Z,1.00
2019-05-11T14:59:23.491Z,0.90
2019-05-11T15:02:32.162Z,0.90
2019-05-11T15:05:02.509Z,0.93
2019-05-11T15:07:32.899Z,1.00
2019-05-11T15:10:03.309Z,1.10
2019-05-11T15:12:53.130Z,0.80
2019-05-11T15:15:23.502Z,1.20
2019-05-11T15:17:53.953Z,1.37
2019-05-11T15:20:28.022Z,0.70
2019-05-11T15:23:08.992Z,1.43
2019-05-11T15:28:55.378Z,1.37
2019-05-11T15:31:45.149Z,0.87
2019-05-11T15:34:34.985Z,1.37
2019-05-11T15:37:24.780Z,1.27
2019-05-11T15:40:11.672Z,1.60
2019-05-11T15:43:01.424Z,1.10
2019-05-11T15:45:51.226Z,1.10
2019-05-11T15:48:55.725Z,1.30
2019-05-11T15:51:23.906Z,0.90
2019-05-11T15:54:13.688Z,1.30
2019-05-11T15:57:03.493Z,0.90
2019-05-11T15:59:53.281Z,1.00
2019-05-11T16:02:43.086Z,0.90
2019-05-11T16:05:32.909Z,0.90
2019-05-11T16:08:22.736Z,1.23
2019-05-11T16:11:12.520Z,1.37
2019-05-11T16:14:02.333Z,1.10
2019-05-11T16:16:52.107Z,1.53
2019-05-11T16:19:41.962Z,1.87
2019-05-11T16:22:31.755Z,1.40
2019-05-11T16:25:21.564Z,1.50
2019-05-11T16:27:52.055Z,1.47
2019-05-11T16:30:41.884Z,1.50
2019-05-11T16:33:32.651Z,1.37
2019-05-11T16:36:22.466Z,1.27
2019-05-11T16:39:12.245Z,1.20
2019-05-11T16:42:02.088Z,1.20
2019-05-11T16:44:51.882Z,1.10
2019-05-11T16:47:22.316Z,1.33
2019-05-11T16:50:12.127Z,0.97
2019-05-11T16:53:01.930Z,1.20
2019-05-11T16:55:51.713Z,0.90
2019-05-11T16:58:41.482Z,1.07
2019-05-11T17:01:31.217Z,1.13
2019-05-11T17:04:21.198Z,0.93
2019-05-11T17:06:51.590Z,1.07
2019-05-11T17:09:41.393Z,1.10
2019-05-11T17:12:31.142Z,1.10
2019-05-11T17:15:21.076Z,1.10
2019-05-11T17:18:10.897Z,0.87
2019-05-11T17:21:00.839Z,1.30
2019-05-11T17:23:50.626Z,1.10
2019-05-11T17:26:40.454Z,1.47
2019-05-11T17:29:10.867Z,1.53
2019-05-11T17:32:00.797Z,1.23
2019-05-11T17:34:51.168Z,1.50
2019-05-11T17:37:41.219Z,1.30
2019-05-11T17:40:31.037Z,1.33
2019-05-11T17:43:20.881Z,1.20
2019-05-11T17:46:10.754Z,1.63
2019-05-11T17:49:00.601Z,1.40
2019-05-11T17:51:52.150Z,1.33
2019-05-11T17:54:33.574Z,1.43
2019-05-11T17:57:23.398Z,2.10
2019-05-11T18:00:13.288Z,1.67
2019-05-11T18:03:03.212Z,2.80
2019-05-11T18:05:33.750Z,2.83
2019-05-11T18:08:23.496Z,2.20
2019-05-11T18:11:13.481Z,20.80
2019-05-11T18:14:03.232Z,2.63
2019-05-11T18:16:34.322Z,1.60
2019-05-11T18:19:24.093Z,1.50
2019-05-11T18:21:54.536Z,1.00
2019-05-11T18:24:28.512Z,1.20
2019-05-11T18:27:09.987Z,1.23
2019-05-11T18:29:59.749Z,1.40
2019-05-11T18:32:49.605Z,1.50
2019-05-11T18:35:39.392Z,1.03
2019-05-11T18:38:29.218Z,0.93
2019-05-11T18:41:18.989Z,1.77
2019-05-11T18:44:08.882Z,1.10
2019-05-11T18:46:59.257Z,1.10
2019-05-11T18:49:42.042Z,1.20
2019-05-11T18:52:32.896Z,0.90
2019-05-11T18:55:22.849Z,1.00
2019-05-11T18:58:13.017Z,1.20
2019-05-11T19:01:03.068Z,1.37
2019-05-11T19:03:52.909Z,1.13
2019-05-11T19:06:42.724Z,1.53
2019-05-11T19:09:32.532Z,1.50
2019-05-11T19:12:22.579Z,1.10
2019-05-11T19:15:12.376Z,0.90
2019-05-11T19:18:02.350Z,1.23
2019-05-11T19:20:52.152Z,1.03
2019-05-11T19:23:41.995Z,1.20
2019-05-11T19:26:31.875Z,1.00
2019-05-11T19:29:21.687Z,1.50
2019-05-11T19:31:53.781Z,0.90
2019-05-11T19:34:43.564Z,1.60
2019-05-11T19:37:33.402Z,1.20
2019-05-11T19:40:23.201Z,1.00
2019-05-11T19:43:13.015Z,1.20
2019-05-11T19:46:03.785Z,1.30
2019-05-11T19:48:53.604Z,1.10
2019-05-11T19:51:43.429Z,1.00
2019-05-11T19:54:33.195Z,1.30
2019-05-11T19:57:22.959Z,1.07
2019-05-11T20:00:12.860Z,1.00
2019-05-11T20:02:43.267Z,1.30
2019-05-11T20:05:33.068Z,1.47
2019-05-11T20:08:22.898Z,1.20
2019-05-11T20:11:12.788Z,1.10
2019-05-11T20:14:02.621Z,1.10
2019-05-11T20:16:52.447Z,0.90
2019-05-11T20:19:42.234Z,1.27
2019-05-11T20:22:32.023Z,1.10
2019-05-11T20:25:02.408Z,1.20
2019-05-11T20:27:52.255Z,0.90
2019-05-11T20:30:42.164Z,1.20
2019-05-11T20:33:31.961Z,1.10
2019-05-11T20:36:21.744Z,0.83
2019-05-11T20:38:52.320Z,1.10
2019-05-11T20:41:42.104Z,1.27
2019-05-11T20:44:31.933Z,1.33
2019-05-11T20:47:21.677Z,1.27
2019-05-11T20:49:52.132Z,1.33
2019-05-11T20:55:38.856Z,1.70
2019-05-11T21:01:13.064Z,1.23
2019-05-11T21:04:02.851Z,1.50
2019-05-11T21:06:52.719Z,1.20
2019-05-11T21:09:42.542Z,1.57
2019-05-11T21:12:32.360Z,1.10
2019-05-11T21:15:22.166Z,1.03
2019-05-11T21:17:52.639Z,1.00
2019-05-11T21:20:42.369Z,1.00
2019-05-11T21:23:32.166Z,1.10
2019-05-11T21:26:21.950Z,1.60
2019-05-11T21:28:52.422Z,1.37
2019-05-11T21:31:42.208Z,1.10
2019-05-11T21:34:32.104Z,1.30
2019-05-11T21:37:21.870Z,0.90
2019-05-11T21:43:14.754Z,1.10
2019-05-11T21:46:04.502Z,1.03
2019-05-11T21:48:54.291Z,1.20
2019-05-11T21:51:44.065Z,1.50
2019-05-11T21:54:33.878Z,1.00
2019-05-11T21:57:23.679Z,1.13
2019-05-11T22:03:35.631Z,1.30
2019-05-11T22:06:25.384Z,0.97
2019-05-11T22:09:15.163Z,1.03
2019-05-11T22:12:04.936Z,0.90
2019-05-11T22:14:54.760Z,1.20
2019-05-11T22:17:44.520Z,1.00
2019-05-11T22:20:34.386Z,0.90
2019-05-11T22:23:24.099Z,1.10
2019-05-11T22:26:14.688Z,1.30
2019-05-11T22:29:07.444Z,1.00
2019-05-11T22:31:42.849Z,1.00
2019-05-11T22:34:13.267Z,0.80
2019-05-11T22:37:03.045Z,1.13
2019-05-11T22:39:52.819Z,0.90
2019-05-11T22:42:42.639Z,0.90
2019-05-11T22:45:32.359Z,0.90
2019-05-11T22:48:22.216Z,0.97
2019-05-11T22:50:52.657Z,0.93
2019-05-11T22:53:47.104Z,0.70
2019-05-11T22:56:25.244Z,0.73
2019-05-11T22:59:15.019Z,0.90
2019-05-11T23:01:45.423Z,0.80
2019-05-11T23:04:19.645Z,0.87
2019-05-11T23:07:07.973Z,1.00
2019-05-11T23:09:50.881Z,0.90
2019-05-11T23:12:40.671Z,0.73
2019-05-11T23:15:30.464Z,0.70
2019-05-11T23:18:00.811Z,0.73
2019-05-11T23:20:31.189Z,0.83
2019-05-11T23:23:20.947Z,1.00
2019-05-11T23:26:10.729Z,0.80
2019-05-11T23:29:00.492Z,0.97
2019-05-11T23:31:50.266Z,0.80
2019-05-11T23:34:40.042Z,0.87
2019-05-11T23:37:29.812Z,0.70
2019-05-11T23:43:22.384Z,0.90
2019-05-11T23:45:54.363Z,0.77
2019-05-11T23:48:44.175Z,0.70
2019-05-11T23:51:33.912Z,0.80
2019-05-11T23:54:23.846Z,0.70
2019-05-11T23:57:13.574Z,0.97
2019-05-11T23:59:43.950Z,0.93
